Mccreary, Canada
Current Conditions -  °F | °C
As of 10:00 AM on Tuesday 21 Oct 2014 (Local Time) from CYDN Reporting Station
Clear Clear  
Wind Chill: 61°   Ceiling: Unl
Heat Index: 61°   Visibility: 9mi
Dew Point: 39°   Wind: 3mph
Humidity: 45%   Direction: NA
Pressure: 29.79"   Gusts: NA
Location:  50.78°N, 99.48°W
Report Text: CYDN 211500Z AUTO VRB03KT 9SM CLR 16/04 A2979 RMK SLP096 DENSITY ALT 1500FT
Loading
Personal Weather Stations






























Interactive Weather Map
Tropical Storm Tracking
New forecast layout! Learn more

10-Day Weather Forecast

Advertisements
Track Severe Weather on mobile